Pagina principale
METAR-TAF:

METAR-TAF

Aeroporti :

Vannes, Francia

latitudine: 47-43-19N, longitudine: 2-43-41W, altezza: 130 m

Osservazione

Il bollettino è stato emesso 39 minuti fa, alle 17:00 UTC
Vento 13 kt da est/nord-est
Temperature 25°C
Umidità 32%
Pressione 1014 hPa
Visibilità 10 km o più
nessuna nube inferiore a 1500 m e nessun cumulonembo

METAR: LFRV 311700Z AUTO 07013KT CAVOK 25/07 Q1014

Ora: 19:39 (17:39 UTC)


TAF: mancante

Osservazioni e previsioni meteorologiche di più di 4000 aeroporti (messaggi METAR e TAF).

Le stazioni disponibili sono rappresentate dai dischi gialli e rossi sulla carta.

Puntare il mouse per vedere il nome della stazione.

Clicca sopra per visualizzare le osservazioni e previsioni meteorologiche.

Per cambiare la mappa : fare clic sui pulsanti verdi con una croce nera per ingrandire, il pulsante verde con un trattino per diminuire, o sulla freccia verde per le mappe adiacenti.


METAR-TAF: